sensor_id;sensor_type;location;lat;lon;timestamp;temperature;humidity
48206;DHT22;33995;48.202;16.260;2022-08-01T00:01:14;19.10;99.90
48206;DHT22;33995;48.202;16.260;2022-08-01T00:03:42;19.10;99.90
48206;DHT22;33995;48.202;16.260;2022-08-01T00:06:13;19.10;99.90
48206;DHT22;33995;48.202;16.260;2022-08-01T00:08:45;19.20;99.90
48206;DHT22;33995;48.202;16.260;2022-08-01T00:11:12;19.10;99.90
48206;DHT22;33995;48.202;16.260;2022-08-01T00:13:43;19.10;99.90
48206;DHT22;33995;48.202;16.260;2022-08-01T00:16:12;19.10;99.90
48206;DHT22;33995;48.202;16.260;2022-08-01T00:18:41;19.10;99.90
48206;DHT22;33995;48.202;16.260;2022-08-01T00:21:09;19.10;99.90
48206;DHT22;33995;48.202;16.260;2022-08-01T00:23:37;19.10;99.90
48206;DHT22;33995;48.202;16.260;2022-08-01T00:26:06;19.10;99.90
48206;DHT22;33995;48.202;16.260;2022-08-01T00:28:37;19.10;99.90
48206;DHT22;33995;48.202;16.260;2022-08-01T00:31:06;19.00;99.90
48206;DHT22;33995;48.202;16.260;2022-08-01T00:33:36;19.00;99.90
48206;DHT22;33995;48.202;16.260;2022-08-01T00:36:06;18.90;99.90
48206;DHT22;33995;48.202;16.260;2022-08-01T00:38:33;18.90;99.90
48206;DHT22;33995;48.202;16.260;2022-08-01T00:41:02;18.90;99.90
48206;DHT22;33995;48.202;16.260;2022-08-01T00:43:34;18.90;99.90
48206;DHT22;33995;48.202;16.260;2022-08-01T00:46:02;18.80;99.90
48206;DHT22;33995;48.202;16.260;2022-08-01T00:48:31;18.80;99.90
48206;DHT22;33995;48.202;16.260;2022-08-01T00:51:05;18.80;99.90
48206;DHT22;33995;48.202;16.260;2022-08-01T00:53:37;18.80;99.90
48206;DHT22;33995;48.202;16.260;2022-08-01T00:56:20;18.80;99.90
48206;DHT22;33995;48.202;16.260;2022-08-01T00:58:49;18.70;99.90
48206;DHT22;33995;48.202;16.260;2022-08-01T01:01:18;18.70;99.90
48206;DHT22;33995;48.202;16.260;2022-08-01T01:04:07;18.80;99.90
48206;DHT22;33995;48.202;16.260;2022-08-01T01:12:44;18.70;99.90
48206;DHT22;33995;48.202;16.260;2022-08-01T01:15:29;18.70;99.90
48206;DHT22;33995;48.202;16.260;2022-08-01T01:18:09;18.60;99.90
48206;DHT22;33995;48.202;16.260;2022-08-01T01:20:41;18.60;99.90
48206;DHT22;33995;48.202;16.260;2022-08-01T01:29:16;18.50;99.90
48206;DHT22;33995;48.202;16.260;2022-08-01T01:31:59;18.50;99.90
48206;DHT22;33995;48.202;16.260;2022-08-01T01:34:38;18.60;99.90
48206;DHT22;33995;48.202;16.260;2022-08-01T01:37:12;18.60;99.90
48206;DHT22;33995;48.202;16.260;2022-08-01T01:39:44;18.60;99.90
48206;DHT22;33995;48.202;16.260;2022-08-01T01:42:30;18.50;99.90
48206;DHT22;33995;48.202;16.260;2022-08-01T01:45:04;18.50;99.90
48206;DHT22;33995;48.202;16.260;2022-08-01T01:47:34;18.50;99.90
48206;DHT22;33995;48.202;16.260;2022-08-01T01:50:05;18.50;99.90
48206;DHT22;33995;48.202;16.260;2022-08-01T01:52:36;18.60;99.90
48206;DHT22;33995;48.202;16.260;2022-08-01T01:55:08;18.60;99.90
48206;DHT22;33995;48.202;16.260;2022-08-01T01:57:50;18.60;99.90
48206;DHT22;33995;48.202;16.260;2022-08-01T02:00:21;18.60;99.90
48206;DHT22;33995;48.202;16.260;2022-08-01T02:02:49;18.60;99.90
48206;DHT22;33995;48.202;16.260;2022-08-01T02:05:26;18.60;99.90
48206;DHT22;33995;48.202;16.260;2022-08-01T02:07:59;18.60;99.90
48206;DHT22;33995;48.202;16.260;2022-08-01T02:10:39;18.70;99.90
48206;DHT22;33995;48.202;16.260;2022-08-01T02:13:10;18.60;99.90
48206;DHT22;33995;48.202;16.260;2022-08-01T02:15:41;18.70;99.90
48206;DHT22;33995;48.202;16.260;2022-08-01T02:18:27;18.70;99.90
48206;DHT22;33995;48.202;16.260;2022-08-01T02:20:59;18.70;99.90
48206;DHT22;33995;48.202;16.260;2022-08-01T02:23:37;18.70;99.90
48206;DHT22;33995;48.202;16.260;2022-08-01T02:26:10;18.80;99.90
48206;DHT22;33995;48.202;16.260;2022-08-01T02:29:19;18.80;99.90
48206;DHT22;33995;48.202;16.260;2022-08-01T02:31:41;18.80;99.90
48206;DHT22;33995;48.202;16.260;2022-08-01T02:34:18;18.80;99.90
48206;DHT22;33995;48.202;16.260;2022-08-01T02:36:48;18.80;99.90
48206;DHT22;33995;48.202;16.260;2022-08-01T02:39:21;18.80;99.90
48206;DHT22;33995;48.202;16.260;2022-08-01T02:41:55;18.80;99.90
48206;DHT22;33995;48.202;16.260;2022-08-01T02:44:31;18.90;99.90
48206;DHT22;33995;48.202;16.260;2022-08-01T02:47:05;18.90;99.90
48206;DHT22;33995;48.202;16.260;2022-08-01T02:49:47;18.90;99.90
48206;DHT22;33995;48.202;16.260;2022-08-01T02:52:21;18.90;99.90
48206;DHT22;33995;48.202;16.260;2022-08-01T02:55:05;18.90;99.90
48206;DHT22;33995;48.202;16.260;2022-08-01T02:57:35;18.80;99.90
48206;DHT22;33995;48.202;16.260;2022-08-01T03:00:20;18.80;99.90
48206;DHT22;33995;48.202;16.260;2022-08-01T03:02:52;18.80;99.90
48206;DHT22;33995;48.202;16.260;2022-08-01T03:05:24;18.80;99.90
48206;DHT22;33995;48.202;16.260;2022-08-01T03:07:55;18.80;99.90
48206;DHT22;33995;48.202;16.260;2022-08-01T03:10:32;18.80;99.90
48206;DHT22;33995;48.202;16.260;2022-08-01T03:13:01;18.80;99.90
48206;DHT22;33995;48.202;16.260;2022-08-01T03:15:37;18.80;99.90
48206;DHT22;33995;48.202;16.260;2022-08-01T03:18:09;18.80;99.90
48206;DHT22;33995;48.202;16.260;2022-08-01T03:20:37;18.80;99.90
48206;DHT22;33995;48.202;16.260;2022-08-01T03:23:07;18.80;99.90
48206;DHT22;33995;48.202;16.260;2022-08-01T03:25:51;18.80;99.90
48206;DHT22;33995;48.202;16.260;2022-08-01T03:28:21;18.80;99.90
48206;DHT22;33995;48.202;16.260;2022-08-01T03:30:57;18.80;99.90
48206;DHT22;33995;48.202;16.260;2022-08-01T03:33:39;18.80;99.90
48206;DHT22;33995;48.202;16.260;2022-08-01T03:36:10;18.90;99.90
48206;DHT22;33995;48.202;16.260;2022-08-01T03:38:41;18.80;99.90
48206;DHT22;33995;48.202;16.260;2022-08-01T03:41:21;18.90;99.90
48206;DHT22;33995;48.202;16.260;2022-08-01T03:44:18;18.90;99.90
48206;DHT22;33995;48.202;16.260;2022-08-01T03:47:02;18.80;99.90
48206;DHT22;33995;48.202;16.260;2022-08-01T03:49:42;18.80;99.90
48206;DHT22;33995;48.202;16.260;2022-08-01T03:52:10;18.80;99.90
48206;DHT22;33995;48.202;16.260;2022-08-01T03:54:46;18.80;99.90
48206;DHT22;33995;48.202;16.260;2022-08-01T03:57:16;18.80;99.90
48206;DHT22;33995;48.202;16.260;2022-08-01T04:00:08;18.90;99.90
48206;DHT22;33995;48.202;16.260;2022-08-01T04:02:39;19.00;99.90
48206;DHT22;33995;48.202;16.260;2022-08-01T04:05:09;19.00;99.90
48206;DHT22;33995;48.202;16.260;2022-08-01T04:07:37;19.00;99.90
48206;DHT22;33995;48.202;16.260;2022-08-01T04:10:08;19.00;99.90
48206;DHT22;33995;48.202;16.260;2022-08-01T04:12:38;19.00;99.90
48206;DHT22;33995;48.202;16.260;2022-08-01T04:15:08;19.00;99.90
48206;DHT22;33995;48.202;16.260;2022-08-01T04:17:37;19.00;99.90
48206;DHT22;33995;48.202;16.260;2022-08-01T04:20:06;19.10;99.90
48206;DHT22;33995;48.202;16.260;2022-08-01T04:22:36;19.10;99.90
48206;DHT22;33995;48.202;16.260;2022-08-01T04:25:23;19.10;99.90
48206;DHT22;33995;48.202;16.260;2022-08-01T04:27:54;19.10;99.90
48206;DHT22;33995;48.202;16.260;2022-08-01T04:30:30;19.20;99.90
48206;DHT22;33995;48.202;16.260;2022-08-01T04:33:04;19.20;99.90
48206;DHT22;33995;48.202;16.260;2022-08-01T04:35:34;19.20;99.90
48206;DHT22;33995;48.202;16.260;2022-08-01T04:38:28;19.20;99.90
48206;DHT22;33995;48.202;16.260;2022-08-01T04:41:06;19.20;99.90
48206;DHT22;33995;48.202;16.260;2022-08-01T04:43:40;19.20;99.90
48206;DHT22;33995;48.202;16.260;2022-08-01T04:46:12;19.30;99.90
48206;DHT22;33995;48.202;16.260;2022-08-01T04:48:41;19.30;99.90
48206;DHT22;33995;48.202;16.260;2022-08-01T04:51:33;19.30;99.90
48206;DHT22;33995;48.202;16.260;2022-08-01T04:54:01;19.40;99.90
48206;DHT22;33995;48.202;16.260;2022-08-01T04:56:31;19.40;99.90
48206;DHT22;33995;48.202;16.260;2022-08-01T04:59:03;19.40;99.90
48206;DHT22;33995;48.202;16.260;2022-08-01T05:01:49;19.40;99.90
48206;DHT22;33995;48.202;16.260;2022-08-01T05:04:18;19.50;99.90
48206;DHT22;33995;48.202;16.260;2022-08-01T05:06:48;19.50;99.90
48206;DHT22;33995;48.202;16.260;2022-08-01T05:09:17;19.60;99.90
48206;DHT22;33995;48.202;16.260;2022-08-01T05:11:45;19.60;99.90
48206;DHT22;33995;48.202;16.260;2022-08-01T05:14:13;19.60;99.90
48206;DHT22;33995;48.202;16.260;2022-08-01T05:16:45;19.70;99.90
48206;DHT22;33995;48.202;16.260;2022-08-01T05:19:15;19.70;99.90
48206;DHT22;33995;48.202;16.260;2022-08-01T05:21:45;19.80;99.90
48206;DHT22;33995;48.202;16.260;2022-08-01T05:24:17;19.80;99.90
48206;DHT22;33995;48.202;16.260;2022-08-01T05:26:48;19.80;99.90
48206;DHT22;33995;48.202;16.260;2022-08-01T05:29:17;19.80;99.90
48206;DHT22;33995;48.202;16.260;2022-08-01T05:31:49;19.90;99.90
48206;DHT22;33995;48.202;16.260;2022-08-01T05:34:22;19.90;99.90
48206;DHT22;33995;48.202;16.260;2022-08-01T05:36:49;20.00;99.90
48206;DHT22;33995;48.202;16.260;2022-08-01T05:39:24;20.10;99.90
48206;DHT22;33995;48.202;16.260;2022-08-01T05:41:53;20.10;99.90
48206;DHT22;33995;48.202;16.260;2022-08-01T05:44:21;20.20;99.90
48206;DHT22;33995;48.202;16.260;2022-08-01T05:46:49;20.20;99.90
48206;DHT22;33995;48.202;16.260;2022-08-01T05:49:18;20.20;99.90
48206;DHT22;33995;48.202;16.260;2022-08-01T05:51:46;20.30;99.90
48206;DHT22;33995;48.202;16.260;2022-08-01T05:54:15;20.40;99.90
48206;DHT22;33995;48.202;16.260;2022-08-01T05:56:46;20.40;99.90
48206;DHT22;33995;48.202;16.260;2022-08-01T05:59:18;20.40;99.90
48206;DHT22;33995;48.202;16.260;2022-08-01T06:01:46;20.50;99.90
48206;DHT22;33995;48.202;16.260;2022-08-01T06:04:17;20.70;99.90
48206;DHT22;33995;48.202;16.260;2022-08-01T06:06:45;20.80;99.90
48206;DHT22;33995;48.202;16.260;2022-08-01T06:09:13;20.80;99.90
48206;DHT22;33995;48.202;16.260;2022-08-01T06:11:46;20.90;99.90
48206;DHT22;33995;48.202;16.260;2022-08-01T06:14:13;20.90;99.90
48206;DHT22;33995;48.202;16.260;2022-08-01T06:16:42;20.90;99.90
48206;DHT22;33995;48.202;16.260;2022-08-01T06:19:10;21.00;99.90
48206;DHT22;33995;48.202;16.260;2022-08-01T06:21:45;21.10;99.90
48206;DHT22;33995;48.202;16.260;2022-08-01T06:24:14;21.10;99.90
48206;DHT22;33995;48.202;16.260;2022-08-01T06:26:42;21.10;99.90
48206;DHT22;33995;48.202;16.260;2022-08-01T06:29:10;21.20;99.90
48206;DHT22;33995;48.202;16.260;2022-08-01T06:31:39;21.30;99.90
48206;DHT22;33995;48.202;16.260;2022-08-01T06:34:07;21.30;99.90
48206;DHT22;33995;48.202;16.260;2022-08-01T06:36:36;21.40;99.90
48206;DHT22;33995;48.202;16.260;2022-08-01T06:39:06;21.50;99.90
48206;DHT22;33995;48.202;16.260;2022-08-01T06:41:37;21.60;99.90
48206;DHT22;33995;48.202;16.260;2022-08-01T06:44:06;21.60;99.90
48206;DHT22;33995;48.202;16.260;2022-08-01T06:46:34;21.70;99.90
48206;DHT22;33995;48.202;16.260;2022-08-01T06:49:03;21.90;99.90
48206;DHT22;33995;48.202;16.260;2022-08-01T06:51:34;22.00;99.90
48206;DHT22;33995;48.202;16.260;2022-08-01T06:54:02;22.20;99.90
48206;DHT22;33995;48.202;16.260;2022-08-01T06:56:30;22.60;99.90
48206;DHT22;33995;48.202;16.260;2022-08-01T06:59:03;22.80;99.90
48206;DHT22;33995;48.202;16.260;2022-08-01T07:01:31;23.00;99.90
48206;DHT22;33995;48.202;16.260;2022-08-01T07:04:03;23.20;99.90
48206;DHT22;33995;48.202;16.260;2022-08-01T07:06:36;23.20;99.90
48206;DHT22;33995;48.202;16.260;2022-08-01T07:09:05;23.20;99.90
48206;DHT22;33995;48.202;16.260;2022-08-01T07:11:42;23.20;99.90
48206;DHT22;33995;48.202;16.260;2022-08-01T07:14:11;23.10;99.90
48206;DHT22;33995;48.202;16.260;2022-08-01T07:16:41;23.10;99.90
48206;DHT22;33995;48.202;16.260;2022-08-01T07:19:08;23.10;99.90
48206;DHT22;33995;48.202;16.260;2022-08-01T07:21:37;23.20;99.90
48206;DHT22;33995;48.202;16.260;2022-08-01T07:24:10;23.20;99.90
48206;DHT22;33995;48.202;16.260;2022-08-01T07:26:43;23.30;99.90
48206;DHT22;33995;48.202;16.260;2022-08-01T07:29:25;23.30;99.90
48206;DHT22;33995;48.202;16.260;2022-08-01T07:32:12;23.30;99.90
48206;DHT22;33995;48.202;16.260;2022-08-01T07:34:41;23.30;99.90
48206;DHT22;33995;48.202;16.260;2022-08-01T07:37:10;23.20;99.90
48206;DHT22;33995;48.202;16.260;2022-08-01T07:39:41;23.20;99.90
48206;DHT22;33995;48.202;16.260;2022-08-01T07:42:10;23.20;99.90
48206;DHT22;33995;48.202;16.260;2022-08-01T07:44:42;23.20;99.90
48206;DHT22;33995;48.202;16.260;2022-08-01T07:47:09;23.10;99.90
48206;DHT22;33995;48.202;16.260;2022-08-01T07:49:38;23.10;99.90
48206;DHT22;33995;48.202;16.260;2022-08-01T07:52:08;23.10;99.90
48206;DHT22;33995;48.202;16.260;2022-08-01T07:54:37;23.10;99.90
48206;DHT22;33995;48.202;16.260;2022-08-01T07:57:09;23.00;99.90
48206;DHT22;33995;48.202;16.260;2022-08-01T07:59:38;23.00;99.90
48206;DHT22;33995;48.202;16.260;2022-08-01T08:02:06;23.00;99.90
48206;DHT22;33995;48.202;16.260;2022-08-01T08:04:35;23.10;99.90
48206;DHT22;33995;48.202;16.260;2022-08-01T08:07:02;23.10;99.90
48206;DHT22;33995;48.202;16.260;2022-08-01T08:09:35;23.10;99.90
48206;DHT22;33995;48.202;16.260;2022-08-01T08:12:06;23.10;99.90
48206;DHT22;33995;48.202;16.260;2022-08-01T08:14:38;23.20;99.90
48206;DHT22;33995;48.202;16.260;2022-08-01T08:17:07;23.30;99.90
48206;DHT22;33995;48.202;16.260;2022-08-01T08:19:35;23.30;99.90
48206;DHT22;33995;48.202;16.260;2022-08-01T08:22:13;23.40;99.90
48206;DHT22;33995;48.202;16.260;2022-08-01T08:24:43;23.50;99.90
48206;DHT22;33995;48.202;16.260;2022-08-01T08:27:14;23.60;99.90
48206;DHT22;33995;48.202;16.260;2022-08-01T08:29:45;23.90;99.90
48206;DHT22;33995;48.202;16.260;2022-08-01T08:32:13;24.10;99.90
48206;DHT22;33995;48.202;16.260;2022-08-01T08:34:42;24.30;99.90
48206;DHT22;33995;48.202;16.260;2022-08-01T08:37:12;24.40;99.90
48206;DHT22;33995;48.202;16.260;2022-08-01T08:39:43;24.50;99.90
48206;DHT22;33995;48.202;16.260;2022-08-01T08:42:11;24.50;99.90
48206;DHT22;33995;48.202;16.260;2022-08-01T08:44:42;24.60;99.90
48206;DHT22;33995;48.202;16.260;2022-08-01T08:47:12;24.60;99.90
48206;DHT22;33995;48.202;16.260;2022-08-01T08:49:47;24.60;99.90
48206;DHT22;33995;48.202;16.260;2022-08-01T08:52:18;24.60;99.90
48206;DHT22;33995;48.202;16.260;2022-08-01T08:54:49;24.70;99.90
48206;DHT22;33995;48.202;16.260;2022-08-01T08:57:19;24.80;99.90
48206;DHT22;33995;48.202;16.260;2022-08-01T08:59:49;25.00;99.90
48206;DHT22;33995;48.202;16.260;2022-08-01T09:02:19;25.20;99.90
48206;DHT22;33995;48.202;16.260;2022-08-01T09:04:52;25.50;99.90
48206;DHT22;33995;48.202;16.260;2022-08-01T09:07:19;25.70;99.90
48206;DHT22;33995;48.202;16.260;2022-08-01T09:09:47;26.00;99.90
48206;DHT22;33995;48.202;16.260;2022-08-01T09:12:20;26.20;99.90
48206;DHT22;33995;48.202;16.260;2022-08-01T09:14:50;26.20;99.90
48206;DHT22;33995;48.202;16.260;2022-08-01T09:17:23;26.10;99.90
48206;DHT22;33995;48.202;16.260;2022-08-01T09:19:55;26.20;99.90
48206;DHT22;33995;48.202;16.260;2022-08-01T09:22:25;26.20;99.90
48206;DHT22;33995;48.202;16.260;2022-08-01T09:25:07;26.30;99.90
48206;DHT22;33995;48.202;16.260;2022-08-01T09:27:38;26.50;99.90
48206;DHT22;33995;48.202;16.260;2022-08-01T09:30:19;26.50;99.90
48206;DHT22;33995;48.202;16.260;2022-08-01T09:33:02;26.40;99.90
48206;DHT22;33995;48.202;16.260;2022-08-01T09:35:38;26.60;99.90
48206;DHT22;33995;48.202;16.260;2022-08-01T09:38:20;26.70;99.90
48206;DHT22;33995;48.202;16.260;2022-08-01T09:40:56;26.60;99.90
48206;DHT22;33995;48.202;16.260;2022-08-01T09:43:30;26.80;99.90
48206;DHT22;33995;48.202;16.260;2022-08-01T09:46:08;27.10;99.90
48206;DHT22;33995;48.202;16.260;2022-08-01T09:48:42;26.90;99.90
48206;DHT22;33995;48.202;16.260;2022-08-01T09:54:31;26.40;99.90
48206;DHT22;33995;48.202;16.260;2022-08-01T09:57:15;26.40;99.90
48206;DHT22;33995;48.202;16.260;2022-08-01T09:59:49;26.60;99.90
48206;DHT22;33995;48.202;16.260;2022-08-01T10:02:38;26.80;99.90
48206;DHT22;33995;48.202;16.260;2022-08-01T10:05:14;26.90;99.90
48206;DHT22;33995;48.202;16.260;2022-08-01T10:07:59;26.60;99.90
48206;DHT22;33995;48.202;16.260;2022-08-01T10:10:29;26.50;99.90
48206;DHT22;33995;48.202;16.260;2022-08-01T10:12:59;26.30;99.90
48206;DHT22;33995;48.202;16.260;2022-08-01T10:15:27;26.30;99.90
48206;DHT22;33995;48.202;16.260;2022-08-01T10:18:07;26.60;99.90
48206;DHT22;33995;48.202;16.260;2022-08-01T10:20:54;26.90;99.90
48206;DHT22;33995;48.202;16.260;2022-08-01T10:23:26;27.20;99.90
48206;DHT22;33995;48.202;16.260;2022-08-01T10:26:10;27.40;99.90
48206;DHT22;33995;48.202;16.260;2022-08-01T10:28:44;27.60;99.90
48206;DHT22;33995;48.202;16.260;2022-08-01T10:31:16;27.70;99.90
48206;DHT22;33995;48.202;16.260;2022-08-01T10:33:59;27.80;99.90
48206;DHT22;33995;48.202;16.260;2022-08-01T10:36:35;27.90;99.90
48206;DHT22;33995;48.202;16.260;2022-08-01T10:39:10;28.30;99.90
48206;DHT22;33995;48.202;16.260;2022-08-01T10:41:48;28.50;99.90
48206;DHT22;33995;48.202;16.260;2022-08-01T10:44:22;28.10;99.90
48206;DHT22;33995;48.202;16.260;2022-08-01T10:46:55;27.90;99.90
48206;DHT22;33995;48.202;16.260;2022-08-01T10:49:29;27.70;99.90
48206;DHT22;33995;48.202;16.260;2022-08-01T10:51:58;27.80;99.90
48206;DHT22;33995;48.202;16.260;2022-08-01T10:54:38;27.90;99.90
48206;DHT22;33995;48.202;16.260;2022-08-01T10:57:20;28.10;99.90
48206;DHT22;33995;48.202;16.260;2022-08-01T10:59:51;28.40;99.90
48206;DHT22;33995;48.202;16.260;2022-08-01T11:02:30;28.40;99.90
48206;DHT22;33995;48.202;16.260;2022-08-01T11:05:09;28.60;99.90
48206;DHT22;33995;48.202;16.260;2022-08-01T11:07:54;28.60;99.90
48206;DHT22;33995;48.202;16.260;2022-08-01T11:10:37;28.90;99.90
48206;DHT22;33995;48.202;16.260;2022-08-01T11:13:07;29.00;99.90
48206;DHT22;33995;48.202;16.260;2022-08-01T11:15:38;29.00;99.90
48206;DHT22;33995;48.202;16.260;2022-08-01T11:18:30;29.10;99.80
48206;DHT22;33995;48.202;16.260;2022-08-01T11:21:01;29.00;99.90
48206;DHT22;33995;48.202;16.260;2022-08-01T11:23:56;28.70;99.90
48206;DHT22;33995;48.202;16.260;2022-08-01T11:26:25;29.00;99.90
48206;DHT22;33995;48.202;16.260;2022-08-01T11:29:13;28.90;99.60
48206;DHT22;33995;48.202;16.260;2022-08-01T11:31:50;28.80;99.80
48206;DHT22;33995;48.202;16.260;2022-08-01T11:34:20;28.70;99.90
48206;DHT22;33995;48.202;16.260;2022-08-01T11:37:27;28.70;99.90
48206;DHT22;33995;48.202;16.260;2022-08-01T11:40:25;28.80;99.50
48206;DHT22;33995;48.202;16.260;2022-08-01T11:43:18;28.90;99.60
48206;DHT22;33995;48.202;16.260;2022-08-01T11:45:54;28.80;99.70
48206;DHT22;33995;48.202;16.260;2022-08-01T11:48:26;28.80;99.30
48206;DHT22;33995;48.202;16.260;2022-08-01T11:50:57;28.80;98.60
48206;DHT22;33995;48.202;16.260;2022-08-01T11:53:29;29.00;99.00
48206;DHT22;33995;48.202;16.260;2022-08-01T11:55:58;29.10;98.40
48206;DHT22;33995;48.202;16.260;2022-08-01T11:58:29;29.10;99.10
48206;DHT22;33995;48.202;16.260;2022-08-01T12:00:58;29.20;98.80
48206;DHT22;33995;48.202;16.260;2022-08-01T12:03:31;29.00;98.70
48206;DHT22;33995;48.202;16.260;2022-08-01T12:06:02;28.80;98.40
48206;DHT22;33995;48.202;16.260;2022-08-01T12:08:33;28.50;98.70
48206;DHT22;33995;48.202;16.260;2022-08-01T12:11:05;28.30;99.30
48206;DHT22;33995;48.202;16.260;2022-08-01T12:13:41;28.00;99.70
48206;DHT22;33995;48.202;16.260;2022-08-01T12:16:12;27.70;99.90
48206;DHT22;33995;48.202;16.260;2022-08-01T12:18:43;27.60;99.90
48206;DHT22;33995;48.202;16.260;2022-08-01T12:21:11;27.40;99.90
48206;DHT22;33995;48.202;16.260;2022-08-01T12:23:39;27.30;99.90
48206;DHT22;33995;48.202;16.260;2022-08-01T12:26:07;27.20;99.90
48206;DHT22;33995;48.202;16.260;2022-08-01T12:28:55;27.10;99.50
48206;DHT22;33995;48.202;16.260;2022-08-01T12:31:35;27.10;99.40
48206;DHT22;33995;48.202;16.260;2022-08-01T12:34:25;27.00;98.90
48206;DHT22;33995;48.202;16.260;2022-08-01T12:36:59;26.90;99.00
48206;DHT22;33995;48.202;16.260;2022-08-01T12:39:32;26.70;98.80
48206;DHT22;33995;48.202;16.260;2022-08-01T12:42:08;26.60;99.60
48206;DHT22;33995;48.202;16.260;2022-08-01T12:44:40;26.60;99.90
48206;DHT22;33995;48.202;16.260;2022-08-01T12:47:09;26.50;99.90
48206;DHT22;33995;48.202;16.260;2022-08-01T12:49:38;26.30;99.90
48206;DHT22;33995;48.202;16.260;2022-08-01T12:52:11;26.20;99.90
48206;DHT22;33995;48.202;16.260;2022-08-01T12:55:11;26.00;99.90
48206;DHT22;33995;48.202;16.260;2022-08-01T12:57:43;25.90;99.90
48206;DHT22;33995;48.202;16.260;2022-08-01T13:00:24;25.70;99.90
48206;DHT22;33995;48.202;16.260;2022-08-01T13:03:09;25.50;99.90
48206;DHT22;33995;48.202;16.260;2022-08-01T13:08:29;25.30;99.90
48206;DHT22;33995;48.202;16.260;2022-08-01T13:11:04;25.20;99.90
48206;DHT22;33995;48.202;16.260;2022-08-01T13:13:47;25.30;99.90
48206;DHT22;33995;48.202;16.260;2022-08-01T13:16:24;25.50;99.90
48206;DHT22;33995;48.202;16.260;2022-08-01T13:19:03;25.80;99.90
48206;DHT22;33995;48.202;16.260;2022-08-01T13:21:32;26.10;99.90
48206;DHT22;33995;48.202;16.260;2022-08-01T13:24:29;26.20;99.90
48206;DHT22;33995;48.202;16.260;2022-08-01T13:27:01;26.50;99.90
48206;DHT22;33995;48.202;16.260;2022-08-01T13:29:32;26.70;99.90
48206;DHT22;33995;48.202;16.260;2022-08-01T13:32:21;26.90;99.90
48206;DHT22;33995;48.202;16.260;2022-08-01T13:35:07;27.10;99.90
48206;DHT22;33995;48.202;16.260;2022-08-01T13:37:36;27.20;99.90
48206;DHT22;33995;48.202;16.260;2022-08-01T13:40:08;27.20;99.90
48206;DHT22;33995;48.202;16.260;2022-08-01T13:42:36;27.20;99.90
48206;DHT22;33995;48.202;16.260;2022-08-01T13:45:07;27.30;99.90
48206;DHT22;33995;48.202;16.260;2022-08-01T13:47:42;27.40;99.90
48206;DHT22;33995;48.202;16.260;2022-08-01T13:50:32;27.50;99.90
48206;DHT22;33995;48.202;16.260;2022-08-01T13:53:00;27.60;99.90
48206;DHT22;33995;48.202;16.260;2022-08-01T13:55:31;27.60;99.90
48206;DHT22;33995;48.202;16.260;2022-08-01T13:58:03;27.60;99.90
48206;DHT22;33995;48.202;16.260;2022-08-01T14:00:32;27.70;99.90
48206;DHT22;33995;48.202;16.260;2022-08-01T14:03:01;27.70;99.90
48206;DHT22;33995;48.202;16.260;2022-08-01T14:05:43;27.70;99.90
48206;DHT22;33995;48.202;16.260;2022-08-01T14:08:11;27.90;99.90
48206;DHT22;33995;48.202;16.260;2022-08-01T14:10:42;28.00;99.90
48206;DHT22;33995;48.202;16.260;2022-08-01T14:13:11;28.10;99.90
48206;DHT22;33995;48.202;16.260;2022-08-01T14:15:40;28.20;99.90
48206;DHT22;33995;48.202;16.260;2022-08-01T14:18:10;28.30;99.90
48206;DHT22;33995;48.202;16.260;2022-08-01T14:20:39;28.40;99.90
48206;DHT22;33995;48.202;16.260;2022-08-01T14:23:09;28.50;99.90
48206;DHT22;33995;48.202;16.260;2022-08-01T14:25:39;28.50;99.80
48206;DHT22;33995;48.202;16.260;2022-08-01T14:28:30;28.60;99.30
48206;DHT22;33995;48.202;16.260;2022-08-01T14:30:59;28.50;99.30
48206;DHT22;33995;48.202;16.260;2022-08-01T14:33:41;28.50;99.30
48206;DHT22;33995;48.202;16.260;2022-08-01T14:36:10;28.60;98.80
48206;DHT22;33995;48.202;16.260;2022-08-01T14:38:59;28.60;98.20
48206;DHT22;33995;48.202;16.260;2022-08-01T14:41:30;28.60;98.20
48206;DHT22;33995;48.202;16.260;2022-08-01T14:44:03;28.70;98.30
48206;DHT22;33995;48.202;16.260;2022-08-01T14:46:32;28.70;98.00
48206;DHT22;33995;48.202;16.260;2022-08-01T14:49:04;28.60;97.50
48206;DHT22;33995;48.202;16.260;2022-08-01T14:51:38;28.50;97.60
48206;DHT22;33995;48.202;16.260;2022-08-01T14:54:07;28.50;97.90
48206;DHT22;33995;48.202;16.260;2022-08-01T14:56:36;28.60;97.70
48206;DHT22;33995;48.202;16.260;2022-08-01T14:59:06;28.50;97.50
48206;DHT22;33995;48.202;16.260;2022-08-01T15:01:47;28.40;97.40
48206;DHT22;33995;48.202;16.260;2022-08-01T15:04:18;28.40;97.70
48206;DHT22;33995;48.202;16.260;2022-08-01T15:06:49;28.40;97.70
48206;DHT22;33995;48.202;16.260;2022-08-01T15:09:17;28.30;98.00
48206;DHT22;33995;48.202;16.260;2022-08-01T15:11:48;28.20;98.10
48206;DHT22;33995;48.202;16.260;2022-08-01T15:14:17;28.20;98.50
48206;DHT22;33995;48.202;16.260;2022-08-01T15:17:06;28.10;98.60
48206;DHT22;33995;48.202;16.260;2022-08-01T15:19:36;28.10;98.70
48206;DHT22;33995;48.202;16.260;2022-08-01T15:22:09;28.00;98.80
48206;DHT22;33995;48.202;16.260;2022-08-01T15:24:38;28.00;99.30
48206;DHT22;33995;48.202;16.260;2022-08-01T15:27:07;27.90;98.90
48206;DHT22;33995;48.202;16.260;2022-08-01T15:29:38;28.00;99.10
48206;DHT22;33995;48.202;16.260;2022-08-01T15:32:06;28.00;99.00
48206;DHT22;33995;48.202;16.260;2022-08-01T15:34:39;27.90;99.10
48206;DHT22;33995;48.202;16.260;2022-08-01T15:37:09;27.90;99.40
48206;DHT22;33995;48.202;16.260;2022-08-01T15:39:38;27.90;99.50
48206;DHT22;33995;48.202;16.260;2022-08-01T15:42:13;28.00;99.70
48206;DHT22;33995;48.202;16.260;2022-08-01T15:44:52;28.00;99.50
48206;DHT22;33995;48.202;16.260;2022-08-01T15:47:19;28.00;99.60
48206;DHT22;33995;48.202;16.260;2022-08-01T15:49:54;28.00;99.60
48206;DHT22;33995;48.202;16.260;2022-08-01T15:52:24;28.00;99.80
48206;DHT22;33995;48.202;16.260;2022-08-01T15:54:58;27.90;99.10
48206;DHT22;33995;48.202;16.260;2022-08-01T15:57:26;27.80;99.50
48206;DHT22;33995;48.202;16.260;2022-08-01T16:00:00;27.80;99.70
48206;DHT22;33995;48.202;16.260;2022-08-01T16:02:38;27.80;99.80
48206;DHT22;33995;48.202;16.260;2022-08-01T16:05:07;27.80;99.80
48206;DHT22;33995;48.202;16.260;2022-08-01T16:07:41;27.60;99.90
48206;DHT22;33995;48.202;16.260;2022-08-01T16:10:29;27.60;99.90
48206;DHT22;33995;48.202;16.260;2022-08-01T16:12:59;27.60;99.90